Detall de PIREP

Printer-friendly versionPDF version

[2017/05/22 10:20:00]
Flight IATA:CT0001
Pilot Number:041
Company ICAO:CAT
Aircraft Type:F50/A
PAX:18
Aircraft Registration:PAOB
Departing Airport: LEDA
Destination Airport: LEVC
Alternate Airport:LERS
Online: VATSIM
Route:OSVAK H110 SEROX A34 SAURA
Flight Level:FL090
No Slew and time accel
No pause
Crash detect
Detect pilot in Cockpit between each 30 and 45 minutes
10:20 Zero fuel Weight: 36708 Lbs, Fuel Weight: 9067 Lbs
10:20 VATSIM:LEDA 211630Z 18009KT CAVOK 25/15 Q1018
10:20 VATSIM:LEVC 221000Z VRB03KT CAVOK 24/13 Q1017 NOSIG
10:20 VOICE CATALONIAN
10:20 Parking Brakes off
10:24 Take-off
10:24 Take off Weight: 45724 Lbs
10:24 Wind: 164º @ 002 Knots Heading: 310º
10:24 POS N41º 43´ 52´´ E000º 31´ 51´´
10:24 Gear Up: 128 Knots
10:24 Flaps:2 at 128 Knots
10:24 Flaps:1 at 143 Knots
10:25 Flaps:0 at 160 Knots
10:32 TOC
10:32 Fuel Weight: 8823 Lb
10:39 Wind:290º@018 Knots Heading: 200º Ground Speed: 221 Knots Altitude 9005 ft
10:51 TOD
10:51 Fuel Weight: 8426 Lb
10:54 Wind:275º@011 Knots Heading: 198º Ground Speed: 221 Knots Altitude 6122 ft
11:09 Wind:073º@008 Knots Heading: 318º Ground Speed: 182 Knots Altitude 1489 ft
11:09 Flaps:1 at 175 Knots
11:09 Flaps:2 at 159 Knots
11:12 Flaps:3 at 163 Knots
11:12 Gear Down: 140 Knots
11:12 Flaps:4 at 129 Knots
11:13 Flaps:5 at 113 Knots
11:15 TouchDown:Rate -185 ft/min Speed: 97 Knots
11:15 Flaps:0 at 79 Knots
11:15 VATSIM:LEVC 221100Z 07008KT 040V110 CAVOK 25/15 Q1017 NOSIG
11:15 Land
11:15 Wind:073º@009 Knots
11:15 Heading: 297º
11:15 Flight Duration: 00:51
11:15 Landing Weight: 44719 Lbs
11:15 POS N39º 29´ 14´´ W000º 28´ 34´´
11:17 Parking brakes on
11:17 Block to Block Duration: 00:57
11:17 Final Fuel: 7998 Lbls
11:17 Spent Fuel: 1069 Lbls
11:17 Flight Length: 175 NM
11:17 TOD Land Length: 79 NM

Exportar CSV

Powered by Drupal - Modified by Danger4k